Time,TemperatureF,DewpointF,PressureIn,WindDirection,WindDirectionDegrees,WindSpeedMPH,WindSpeedGustMPH,Humidity,HourlyPrecipIn,Conditions,Clouds,dailyrainin,SoftwareType,DateUTC
2013-10-05 00:00:00,69.7,68.5,30.01,NW,323,0.0,0.0,96,0.00,,BKN055,0.00,VWS V14.00,2013-10-05 04:00:00,
2013-10-05 00:01:00,68.0,67.1,30.01,NW,323,0.0,0.0,97,0.00,,BKN055,0.00,VWS V14.00,2013-10-05 04:01:00,
2013-10-05 00:10:00,69.3,68.1,30.01,NW,323,0.0,0.0,96,0.00,,BKN055,0.00,VWS V14.00,2013-10-05 04:10:00,
2013-10-05 00:11:00,67.7,66.8,30.01,NW,323,0.0,0.0,97,0.00,,BKN055,0.00,VWS V14.00,2013-10-05 04:11:00,
2013-10-05 00:20:00,69.0,68.1,30.01,NW,323,0.0,0.0,97,0.00,,BKN055,0.00,VWS V14.00,2013-10-05 04:20:00,
2013-10-05 00:21:00,67.5,66.9,30.01,NW,323,0.0,0.0,98,0.00,,BKN055,0.00,VWS V14.00,2013-10-05 04:21:00,
2013-10-05 00:30:00,68.7,67.8,30.01,NW,323,0.0,0.0,97,0.00,,BKN055,0.00,VWS V14.00,2013-10-05 04:30:00,
2013-10-05 00:31:00,67.3,66.7,30.01,NW,323,0.0,0.0,98,0.00,,BKN055,0.00,VWS V14.00,2013-10-05 04:31:00,
2013-10-05 00:40:00,68.4,67.5,30.01,NW,323,0.0,0.0,97,0.00,,BKN055,0.00,VWS V14.00,2013-10-05 04:40:00,
2013-10-05 00:41:00,67.2,66.6,30.01,NW,323,0.0,0.0,98,0.00,,BKN055,0.00,VWS V14.00,2013-10-05 04:41:00,
2013-10-05 00:50:00,68.2,67.3,30.02,NW,323,0.0,0.0,97,0.00,,BKN055,0.00,VWS V14.00,2013-10-05 04:50:00,
2013-10-05 00:51:00,67.1,66.5,30.01,NW,323,0.0,0.0,98,0.00,,BKN055,0.00,VWS V14.00,2013-10-05 04:51:00,
2013-10-05 01:00:00,68.0,67.1,30.01,NW,323,0.0,0.0,97,0.00,,BKN055,0.00,VWS V14.00,2013-10-05 05:00:00,
2013-10-05 01:01:00,66.8,66.2,30.01,NW,323,0.0,0.0,98,0.00,,BKN055,0.00,VWS V14.00,2013-10-05 05:01:00,
2013-10-05 01:10:00,67.7,66.8,30.01,NW,323,0.0,0.0,97,0.00,,BKN055,0.00,VWS V14.00,2013-10-05 05:10:00,
2013-10-05 01:11:00,66.7,66.1,30.01,NW,323,0.0,0.0,98,0.00,,BKN055,0.00,VWS V14.00,2013-10-05 05:11:00,
2013-10-05 01:20:00,67.5,66.9,30.01,NW,323,0.0,0.0,98,0.00,,BKN055,0.00,VWS V14.00,2013-10-05 05:20:00,
2013-10-05 01:21:00,66.7,66.4,30.01,NW,323,0.0,0.0,99,0.00,,BKN055,0.00,VWS V14.00,2013-10-05 05:21:00,
2013-10-05 01:30:00,67.3,66.7,30.01,NW,323,0.0,0.0,98,0.00,,BKN055,0.00,VWS V14.00,2013-10-05 05:30:00,
2013-10-05 01:31:00,66.7,66.4,30.01,NW,323,0.0,0.0,99,0.00,,BKN055,0.00,VWS V14.00,2013-10-05 05:31:00,
2013-10-05 01:40:00,67.2,66.6,30.01,NW,323,0.0,0.0,98,0.00,,BKN055,0.00,VWS V14.00,2013-10-05 05:40:00,
2013-10-05 01:41:00,66.7,66.4,30.01,NW,323,0.0,0.0,99,0.00,,BKN055,0.00,VWS V14.00,2013-10-05 05:41:00,
2013-10-05 01:50:00,67.1,66.5,30.01,NW,323,0.0,0.0,98,0.00,,BKN055,0.00,VWS V14.00,2013-10-05 05:50:00,
2013-10-05 01:51:00,66.7,66.4,30.01,NW,323,0.0,0.0,99,0.00,,BKN055,0.00,VWS V14.00,2013-10-05 05:51:00,
2013-10-05 02:00:00,66.8,66.2,30.01,NW,323,0.0,0.0,98,0.00,,BKN055,0.00,VWS V14.00,2013-10-05 06:00:00,
2013-10-05 02:01:00,66.7,66.4,30.01,NW,323,0.0,0.0,99,0.00,,BKN055,0.00,VWS V14.00,2013-10-05 06:01:00,
2013-10-05 02:10:00,66.7,66.1,30.01,NW,323,0.0,0.0,98,0.00,,BKN055,0.00,VWS V14.00,2013-10-05 06:10:00,
2013-10-05 02:11:00,66.6,66.3,30.01,NW,323,0.0,0.0,99,0.00,,BKN055,0.00,VWS V14.00,2013-10-05 06:11:00,
2013-10-05 02:20:00,66.7,66.4,30.01,NW,323,0.0,0.0,99,0.00,,BKN055,0.00,VWS V14.00,2013-10-05 06:20:00,
2013-10-05 02:21:00,66.3,66.0,30.01,NW,323,0.0,0.0,99,0.00,,BKN055,0.00,VWS V14.00,2013-10-05 06:21:00,
2013-10-05 02:30:00,66.7,66.4,30.01,NW,323,0.0,0.0,99,0.00,,BKN055,0.00,VWS V14.00,2013-10-05 06:30:00,
2013-10-05 02:31:00,66.1,65.8,30.01,NW,323,0.0,0.0,99,0.00,,BKN055,0.00,VWS V14.00,2013-10-05 06:31:00,
2013-10-05 02:40:00,66.7,66.4,30.01,NW,323,0.0,0.0,99,0.00,,BKN055,0.00,VWS V14.00,2013-10-05 06:40:00,
2013-10-05 02:41:00,65.8,65.5,30.01,NW,323,0.0,0.0,99,0.00,,BKN055,0.00,VWS V14.00,2013-10-05 06:41:00,
2013-10-05 02:50:00,66.7,66.4,30.01,NW,323,0.0,0.0,99,0.00,,BKN055,0.00,VWS V14.00,2013-10-05 06:50:00,
2013-10-05 02:51:00,65.7,65.4,30.01,NW,323,0.0,0.0,99,0.00,,BKN055,0.00,VWS V14.00,2013-10-05 06:51:00,
2013-10-05 03:00:00,66.7,66.4,30.01,NW,323,0.0,0.0,99,0.00,,BKN055,0.00,VWS V14.00,2013-10-05 07:00:00,
2013-10-05 03:01:00,65.6,65.3,30.01,NW,323,0.0,0.0,99,0.00,,BKN055,0.00,VWS V14.00,2013-10-05 07:01:00,
2013-10-05 03:10:00,66.6,66.3,30.01,NW,323,0.0,0.0,99,0.00,,BKN055,0.00,VWS V14.00,2013-10-05 07:10:00,
2013-10-05 03:11:00,65.2,64.9,30.01,NW,323,0.0,0.0,99,0.00,,BKN055,0.00,VWS V14.00,2013-10-05 07:11:00,
2013-10-05 03:20:00,66.3,66.0,30.01,NW,323,0.0,0.0,99,0.00,,BKN055,0.00,VWS V14.00,2013-10-05 07:20:00,
2013-10-05 03:21:00,65.2,64.9,30.01,NW,323,0.0,0.0,99,0.00,,BKN055,0.00,VWS V14.00,2013-10-05 07:21:00,
2013-10-05 03:30:00,66.1,65.8,30.01,NW,323,0.0,0.0,99,0.00,,BKN055,0.00,VWS V14.00,2013-10-05 07:30:00,
2013-10-05 03:31:00,65.4,65.1,30.01,NW,323,0.0,0.0,99,0.00,,BKN055,0.00,VWS V14.00,2013-10-05 07:31:00,
2013-10-05 03:40:00,65.8,65.5,30.01,NW,323,0.0,0.0,99,0.00,,BKN055,0.00,VWS V14.00,2013-10-05 07:40:00,
2013-10-05 03:41:00,65.5,65.5,30.01,NW,323,0.0,0.0,100,0.00,,BKN055,0.00,VWS V14.00,2013-10-05 07:41:00,
2013-10-05 03:50:00,65.7,65.4,30.01,NW,323,0.0,0.0,99,0.00,,BKN055,0.00,VWS V14.00,2013-10-05 07:50:00,
2013-10-05 03:51:00,65.8,65.8,30.01,NW,323,0.0,0.0,100,0.00,,BKN055,0.00,VWS V14.00,2013-10-05 07:51:00,
2013-10-05 04:00:00,65.6,65.3,30.01,NW,323,0.0,0.0,99,0.00,,BKN055,0.00,VWS V14.00,2013-10-05 08:00:00,
2013-10-05 04:01:00,65.7,65.7,30.01,NW,323,0.0,0.0,100,0.00,,BKN055,0.00,VWS V14.00,2013-10-05 08:01:00,
2013-10-05 04:10:00,65.2,64.9,30.01,NW,323,0.0,0.0,99,0.00,,BKN055,0.00,VWS V14.00,2013-10-05 08:10:00,
2013-10-05 04:11:00,65.3,65.0,30.01,NW,323,0.0,1.0,99,0.00,,BKN055,0.00,VWS V14.00,2013-10-05 08:11:00,
2013-10-05 04:20:00,65.2,64.9,30.01,NW,323,0.0,0.0,99,0.00,,BKN055,0.00,VWS V14.00,2013-10-05 08:20:00,
2013-10-05 04:21:00,65.2,64.9,30.01,NW,323,0.0,0.0,99,0.00,,BKN055,0.00,VWS V14.00,2013-10-05 08:21:00,
2013-10-05 04:30:00,65.4,65.1,30.01,NW,323,0.0,0.0,99,0.00,,BKN055,0.00,VWS V14.00,2013-10-05 08:30:00,
2013-10-05 04:31:00,65.0,64.7,30.00,NW,323,0.0,0.0,99,0.00,,BKN055,0.00,VWS V14.00,2013-10-05 08:31:00,
2013-10-05 04:40:00,65.5,65.5,30.01,NW,323,0.0,0.0,100,0.00,,BKN055,0.00,VWS V14.00,2013-10-05 08:40:00,
2013-10-05 04:41:00,64.9,64.6,30.00,NW,323,0.0,0.0,99,0.00,,BKN055,0.00,VWS V14.00,2013-10-05 08:41:00,
2013-10-05 04:50:00,65.8,65.8,30.01,NW,323,0.0,0.0,100,0.00,,BKN055,0.00,VWS V14.00,2013-10-05 08:50:00,
2013-10-05 04:51:00,64.9,64.9,30.00,NW,323,0.0,0.0,100,0.00,,BKN055,0.00,VWS V14.00,2013-10-05 08:51:00,
2013-10-05 05:00:00,65.7,65.7,30.01,NW,323,0.0,0.0,100,0.00,,BKN055,0.00,VWS V14.00,2013-10-05 09:00:00,
2013-10-05 05:01:00,64.9,64.9,30.00,NW,323,0.0,0.0,100,0.00,,BKN055,0.00,VWS V14.00,2013-10-05 09:01:00,
2013-10-05 05:10:00,65.3,65.0,30.01,NW,323,0.0,1.0,99,0.00,,BKN055,0.00,VWS V14.00,2013-10-05 09:10:00,
2013-10-05 05:11:00,64.8,64.5,30.01,NW,323,0.0,0.0,99,0.00,,BKN055,0.00,VWS V14.00,2013-10-05 09:11:00,
2013-10-05 05:20:00,65.2,64.9,30.01,NW,323,0.0,0.0,99,0.00,,BKN055,0.00,VWS V14.00,2013-10-05 09:20:00,
2013-10-05 05:21:00,64.8,64.5,30.01,NW,323,0.0,1.0,99,0.00,,BKN055,0.00,VWS V14.00,2013-10-05 09:21:00,
2013-10-05 05:30:00,65.0,64.7,30.00,NW,323,0.0,0.0,99,0.00,,BKN055,0.00,VWS V14.00,2013-10-05 09:30:00,
2013-10-05 05:31:00,65.0,65.0,30.00,NW,323,0.0,0.0,100,0.00,,BKN055,0.00,VWS V14.00,2013-10-05 09:31:00,
2013-10-05 05:40:00,64.9,64.6,30.00,NW,323,0.0,0.0,99,0.00,,BKN055,0.00,VWS V14.00,2013-10-05 09:40:00,
2013-10-05 05:41:00,65.0,65.0,30.00,NW,323,0.0,0.0,100,0.00,,BKN055,0.00,VWS V14.00,2013-10-05 09:41:00,
2013-10-05 05:50:00,64.9,64.9,30.00,NW,323,0.0,0.0,100,0.00,,BKN055,0.00,VWS V14.00,2013-10-05 09:50:00,
2013-10-05 05:51:00,64.9,64.6,30.00,NW,323,0.0,0.0,99,0.00,,BKN055,0.00,VWS V14.00,2013-10-05 09:51:00,
2013-10-05 06:00:00,64.9,64.9,30.00,NW,323,0.0,0.0,100,0.00,,BKN055,0.00,VWS V14.00,2013-10-05 10:00:00,
2013-10-05 06:01:00,64.6,64.3,30.01,NW,323,0.0,0.0,99,0.00,,BKN055,0.00,VWS V14.00,2013-10-05 10:01:00,
2013-10-05 06:10:00,64.8,64.5,30.01,NW,323,0.0,0.0,99,0.00,,BKN055,0.00,VWS V14.00,2013-10-05 10:10:00,
2013-10-05 06:11:00,64.5,64.5,30.01,NW,323,0.0,0.0,100,0.00,,BKN055,0.00,VWS V14.00,2013-10-05 10:11:00,
2013-10-05 06:20:00,64.8,64.5,30.01,NW,323,0.0,1.0,99,0.00,,BKN055,0.00,VWS V14.00,2013-10-05 10:20:00,
2013-10-05 06:21:00,64.7,64.7,30.01,NW,326,0.0,2.0,100,0.00,,BKN055,0.00,VWS V14.00,2013-10-05 10:21:00,
2013-10-05 06:30:00,65.0,65.0,30.00,NW,323,0.0,0.0,100,0.00,,BKN055,0.00,VWS V14.00,2013-10-05 10:30:00,
2013-10-05 06:31:00,64.9,64.9,30.01,NW,326,0.0,0.0,100,0.00,,BKN055,0.00,VWS V14.00,2013-10-05 10:31:00,
2013-10-05 06:40:00,65.0,65.0,30.00,NW,323,0.0,0.0,100,0.00,,BKN055,0.00,VWS V14.00,2013-10-05 10:40:00,
2013-10-05 06:41:00,65.0,65.0,30.01,NNW,327,2.0,2.0,100,0.01,,BKN055,0.01,VWS V14.00,2013-10-05 10:41:00,
2013-10-05 06:50:00,64.9,64.6,30.00,NW,323,0.0,0.0,99,0.00,,BKN055,0.00,VWS V14.00,2013-10-05 10:50:00,
2013-10-05 06:51:00,65.1,65.1,30.01,NNW,327,0.0,2.0,100,0.01,,BKN055,0.01,VWS V14.00,2013-10-05 10:51:00,
2013-10-05 07:00:00,64.6,64.3,30.01,NW,323,0.0,0.0,99,0.00,,BKN055,0.00,VWS V14.00,2013-10-05 11:00:00,
2013-10-05 07:01:00,65.1,65.1,30.00,NNW,327,0.0,0.0,100,0.01,,BKN055,0.01,VWS V14.00,2013-10-05 11:01:00,
2013-10-05 07:10:00,64.5,64.5,30.01,NW,323,0.0,0.0,100,0.00,,BKN055,0.00,VWS V14.00,2013-10-05 11:10:00,
2013-10-05 07:11:00,65.2,65.2,30.00,NNW,327,0.0,0.0,100,0.01,,BKN055,0.01,VWS V14.00,2013-10-05 11:11:00,
2013-10-05 07:20:00,64.7,64.7,30.01,NW,326,0.0,2.0,100,0.00,,BKN055,0.00,VWS V14.00,2013-10-05 11:20:00,
2013-10-05 07:21:00,65.3,65.3,30.00,NNW,327,0.0,1.0,100,0.01,,BKN055,0.01,VWS V14.00,2013-10-05 11:21:00,
2013-10-05 07:30:00,64.9,64.9,30.01,NW,326,0.0,0.0,100,0.00,,BKN055,0.00,VWS V14.00,2013-10-05 11:30:00,
2013-10-05 07:31:00,65.2,65.2,30.00,NNW,327,0.0,0.0,100,0.01,,BKN055,0.01,VWS V14.00,2013-10-05 11:31:00,
2013-10-05 07:40:00,65.0,65.0,30.01,NNW,327,2.0,2.0,100,0.01,,BKN055,0.01,VWS V14.00,2013-10-05 11:40:00,
2013-10-05 07:41:00,65.1,65.1,30.01,NNW,327,0.0,0.0,100,0.01,,BKN055,0.01,VWS V14.00,2013-10-05 11:41:00,
2013-10-05 07:50:00,65.1,65.1,30.01,NNW,327,0.0,2.0,100,0.01,,BKN055,0.01,VWS V14.00,2013-10-05 11:50:00,
2013-10-05 07:51:00,65.0,65.0,30.00,NNW,327,0.0,0.0,100,0.00,,BKN055,0.01,VWS V14.00,2013-10-05 11:51:00,
2013-10-05 08:00:00,65.1,65.1,30.00,NNW,327,0.0,0.0,100,0.01,,BKN055,0.01,VWS V14.00,2013-10-05 12:00:00,
2013-10-05 08:01:00,64.8,64.8,30.00,NNW,327,0.0,0.0,100,0.00,,BKN055,0.01,VWS V14.00,2013-10-05 12:01:00,
2013-10-05 08:10:00,65.2,65.2,30.00,NNW,327,0.0,0.0,100,0.01,,BKN055,0.01,VWS V14.00,2013-10-05 12:10:00,
2013-10-05 08:11:00,64.6,64.6,30.00,NNW,327,0.0,0.0,100,0.00,,BKN055,0.01,VWS V14.00,2013-10-05 12:11:00,
2013-10-05 08:20:00,65.3,65.3,30.00,NNW,327,0.0,1.0,100,0.01,,BKN055,0.01,VWS V14.00,2013-10-05 12:20:00,
2013-10-05 08:21:00,64.6,64.6,30.00,NNW,327,0.0,0.0,100,0.00,,BKN055,0.01,VWS V14.00,2013-10-05 12:21:00,
2013-10-05 08:30:00,65.2,65.2,30.00,NNW,327,0.0,0.0,100,0.01,,BKN055,0.01,VWS V14.00,2013-10-05 12:30:00,
2013-10-05 08:31:00,64.7,64.7,30.00,NNW,327,0.0,0.0,100,0.00,,BKN055,0.01,VWS V14.00,2013-10-05 12:31:00,
2013-10-05 08:40:00,65.1,65.1,30.01,NNW,327,0.0,0.0,100,0.01,,BKN055,0.01,VWS V14.00,2013-10-05 12:40:00,
2013-10-05 08:41:00,64.8,64.8,30.00,NNW,327,0.0,0.0,100,0.00,,BKN055,0.01,VWS V14.00,2013-10-05 12:41:00,
2013-10-05 08:50:00,65.0,65.0,30.00,NNW,327,0.0,0.0,100,0.00,,BKN055,0.01,VWS V14.00,2013-10-05 12:50:00,
2013-10-05 08:51:00,65.2,65.2,30.00,NNW,327,0.0,0.0,100,0.00,,BKN055,0.01,VWS V14.00,2013-10-05 12:51:00,
2013-10-05 09:00:00,64.8,64.8,30.00,NNW,327,0.0,0.0,100,0.00,,BKN055,0.01,VWS V14.00,2013-10-05 13:00:00,
2013-10-05 09:01:00,66.4,66.4,30.01,NNW,327,0.0,0.0,100,0.00,,BKN055,0.01,VWS V14.00,2013-10-05 13:01:00,
2013-10-05 09:10:00,64.6,64.6,30.00,NNW,327,0.0,0.0,100,0.00,,BKN055,0.01,VWS V14.00,2013-10-05 13:10:00,
2013-10-05 09:11:00,68.4,68.4,30.00,NNW,327,0.0,0.0,100,0.00,,BKN055,0.01,VWS V14.00,2013-10-05 13:11:00,
2013-10-05 09:20:00,64.6,64.6,30.00,NNW,327,0.0,0.0,100,0.00,,BKN055,0.01,VWS V14.00,2013-10-05 13:20:00,
2013-10-05 09:21:00,69.7,69.7,30.00,NNW,327,0.0,1.0,100,0.00,,BKN055,0.01,VWS V14.00,2013-10-05 13:21:00,
2013-10-05 09:30:00,64.7,64.7,30.00,NNW,327,0.0,0.0,100,0.00,,BKN055,0.01,VWS V14.00,2013-10-05 13:30:00,
2013-10-05 09:31:00,70.7,70.7,30.00,South,180,0.0,2.0,100,0.01,,BKN055,0.02,VWS V14.00,2013-10-05 13:31:00,
2013-10-05 09:40:00,64.8,64.8,30.00,NNW,327,0.0,0.0,100,0.00,,BKN055,0.01,VWS V14.00,2013-10-05 13:40:00,
2013-10-05 09:41:00,71.6,71.6,30.01,South,180,0.0,0.0,100,0.01,,BKN055,0.02,VWS V14.00,2013-10-05 13:41:00,
2013-10-05 09:50:00,65.2,65.2,30.00,NNW,327,0.0,0.0,100,0.00,,BKN055,0.01,VWS V14.00,2013-10-05 13:50:00,
2013-10-05 09:51:00,72.3,72.3,30.01,West,265,0.0,4.0,100,0.01,,BKN055,0.02,VWS V14.00,2013-10-05 13:51:00,
2013-10-05 10:00:00,66.4,66.4,30.01,NNW,327,0.0,0.0,100,0.00,,BKN055,0.01,VWS V14.00,2013-10-05 14:00:00,
2013-10-05 10:01:00,72.8,72.8,30.01,North,360,0.0,2.0,100,0.01,,BKN055,0.02,VWS V14.00,2013-10-05 14:01:00,
2013-10-05 10:10:00,68.4,68.4,30.00,NNW,327,0.0,0.0,100,0.00,,BKN055,0.01,VWS V14.00,2013-10-05 14:10:00,
2013-10-05 10:11:00,73.2,72.3,30.02,WSW,253,0.0,3.0,97,0.01,,BKN055,0.02,VWS V14.00,2013-10-05 14:11:00,
2013-10-05 10:20:00,69.7,69.7,30.00,NNW,327,0.0,1.0,100,0.00,,BKN055,0.01,VWS V14.00,2013-10-05 14:20:00,
2013-10-05 10:21:00,73.7,71.9,30.02,SSW,200,0.0,1.0,94,0.01,,BKN055,0.02,VWS V14.00,2013-10-05 14:21:00,
2013-10-05 10:30:00,70.7,70.7,30.00,South,180,0.0,2.0,100,0.01,,BKN055,0.02,VWS V14.00,2013-10-05 14:30:00,
2013-10-05 10:31:00,74.1,72.3,30.02,WSW,254,0.0,3.0,94,0.01,,BKN055,0.02,VWS V14.00,2013-10-05 14:31:00,
2013-10-05 10:40:00,71.6,71.6,30.01,South,180,0.0,0.0,100,0.01,,BKN055,0.02,VWS V14.00,2013-10-05 14:40:00,
2013-10-05 10:41:00,74.5,72.7,30.01,West,259,0.0,0.0,94,0.00,,BKN055,0.02,VWS V14.00,2013-10-05 14:41:00,
2013-10-05 10:50:00,72.3,72.3,30.01,West,265,0.0,4.0,100,0.01,,BKN055,0.02,VWS V14.00,2013-10-05 14:50:00,
2013-10-05 10:51:00,74.9,72.7,30.01,West,259,0.0,1.0,93,0.00,,BKN055,0.02,VWS V14.00,2013-10-05 14:51:00,
2013-10-05 11:00:00,72.8,72.8,30.01,North,360,0.0,2.0,100,0.01,,BKN055,0.02,VWS V14.00,2013-10-05 15:00:00,
2013-10-05 11:01:00,75.3,72.8,30.00,West,259,0.0,2.0,92,0.00,,BKN055,0.02,VWS V14.00,2013-10-05 15:01:00,
2013-10-05 11:10:00,73.2,72.3,30.02,WSW,253,0.0,3.0,97,0.01,,BKN055,0.02,VWS V14.00,2013-10-05 15:10:00,
2013-10-05 11:11:00,75.7,72.9,30.00,SSW,200,0.0,5.0,91,0.00,,BKN055,0.02,VWS V14.00,2013-10-05 15:11:00,
2013-10-05 11:20:00,73.7,71.9,30.02,SSW,200,0.0,1.0,94,0.01,,BKN055,0.02,VWS V14.00,2013-10-05 15:20:00,
2013-10-05 11:21:00,76.0,72.5,30.00,WSW,250,0.0,2.0,89,0.00,,BKN055,0.02,VWS V14.00,2013-10-05 15:21:00,
2013-10-05 11:30:00,74.1,72.3,30.02,WSW,254,0.0,3.0,94,0.01,,BKN055,0.02,VWS V14.00,2013-10-05 15:30:00,
2013-10-05 11:31:00,76.2,72.4,30.00,West,275,0.0,4.0,88,0.00,,BKN055,0.02,VWS V14.00,2013-10-05 15:31:00,
2013-10-05 11:40:00,74.5,72.7,30.01,West,259,0.0,0.0,94,0.00,,BKN055,0.02,VWS V14.00,2013-10-05 15:40:00,
2013-10-05 11:41:00,76.2,72.7,30.01,West,266,4.0,4.0,89,0.00,,BKN055,0.02,VWS V14.00,2013-10-05 15:41:00,
2013-10-05 11:50:00,74.9,72.7,30.01,West,259,0.0,1.0,93,0.00,,BKN055,0.02,VWS V14.00,2013-10-05 15:50:00,
2013-10-05 11:51:00,75.9,72.4,30.00,West,267,0.0,5.0,89,0.00,,BKN055,0.02,VWS V14.00,2013-10-05 15:51:00,
2013-10-05 12:00:00,75.3,72.8,30.00,West,259,0.0,2.0,92,0.00,,BKN055,0.02,VWS V14.00,2013-10-05 16:00:00,
2013-10-05 12:01:00,75.6,72.1,30.00,West,271,0.0,4.0,89,0.00,,BKN055,0.02,VWS V14.00,2013-10-05 16:01:00,
2013-10-05 12:10:00,75.7,72.9,30.00,SSW,200,0.0,5.0,91,0.00,,BKN055,0.02,VWS V14.00,2013-10-05 16:10:00,
2013-10-05 12:11:00,75.7,72.6,30.00,WSW,240,0.0,5.0,90,0.00,,BKN055,0.02,VWS V14.00,2013-10-05 16:11:00,
2013-10-05 12:20:00,76.0,72.5,30.00,WSW,250,0.0,2.0,89,0.00,,BKN055,0.02,VWS V14.00,2013-10-05 16:20:00,
2013-10-05 12:21:00,75.8,72.7,30.00,SW,219,0.0,1.0,90,0.00,,BKN055,0.02,VWS V14.00,2013-10-05 16:21:00,
2013-10-05 12:30:00,76.2,72.4,30.00,West,275,0.0,4.0,88,0.00,,BKN055,0.02,VWS V14.00,2013-10-05 16:30:00,
2013-10-05 12:31:00,75.6,72.5,30.00,WSW,247,0.0,6.0,90,0.00,,BKN055,0.02,VWS V14.00,2013-10-05 16:31:00,
2013-10-05 12:40:00,76.2,72.7,30.01,West,266,4.0,4.0,89,0.00,,BKN055,0.02,VWS V14.00,2013-10-05 16:40:00,
2013-10-05 12:41:00,75.3,72.2,30.00,South,171,0.0,4.0,90,0.00,,BKN055,0.02,VWS V14.00,2013-10-05 16:41:00,
2013-10-05 12:50:00,75.9,72.4,30.00,West,267,0.0,5.0,89,0.00,,BKN055,0.02,VWS V14.00,2013-10-05 16:50:00,
2013-10-05 12:51:00,74.8,72.3,30.00,SSW,198,0.0,1.0,92,0.00,,BKN055,0.02,VWS V14.00,2013-10-05 16:51:00,
2013-10-05 13:00:00,75.6,72.1,30.00,West,271,0.0,4.0,89,0.00,,BKN055,0.02,VWS V14.00,2013-10-05 17:00:00,
2013-10-05 13:01:00,74.3,72.2,29.99,SSW,194,0.0,4.0,93,0.00,,BKN055,0.02,VWS V14.00,2013-10-05 17:01:00,
2013-10-05 13:10:00,75.7,72.6,30.00,WSW,240,0.0,5.0,90,0.00,,BKN055,0.02,VWS V14.00,2013-10-05 17:10:00,
2013-10-05 13:11:00,74.1,71.9,29.99,SSW,194,0.0,0.0,93,0.00,,BKN055,0.02,VWS V14.00,2013-10-05 17:11:00,
2013-10-05 13:20:00,75.8,72.7,30.00,SW,219,0.0,1.0,90,0.00,,BKN055,0.02,VWS V14.00,2013-10-05 17:20:00,
2013-10-05 13:21:00,73.7,71.6,30.00,SSW,210,0.0,4.0,93,0.00,,BKN055,0.02,VWS V14.00,2013-10-05 17:21:00,
2013-10-05 13:30:00,75.6,72.5,30.00,WSW,247,0.0,6.0,90,0.00,,BKN055,0.02,VWS V14.00,2013-10-05 17:30:00,
2013-10-05 13:31:00,73.2,71.4,30.00,WSW,240,0.0,3.0,94,0.03,,BKN055,0.05,VWS V14.00,2013-10-05 17:31:00,
2013-10-05 13:40:00,75.3,72.2,30.00,South,171,0.0,4.0,90,0.00,,BKN055,0.02,VWS V14.00,2013-10-05 17:40:00,
2013-10-05 13:41:00,72.6,71.1,30.00,SSW,211,0.0,2.0,95,0.05,,BKN055,0.07,VWS V14.00,2013-10-05 17:41:00,
2013-10-05 13:50:00,74.8,72.3,30.00,SSW,198,0.0,1.0,92,0.00,,BKN055,0.02,VWS V14.00,2013-10-05 17:50:00,
2013-10-05 13:51:00,72.2,71.0,29.99,SSW,213,0.0,2.0,96,0.07,,BKN055,0.09,VWS V14.00,2013-10-05 17:51:00,
2013-10-05 14:00:00,74.3,72.2,29.99,SSW,194,0.0,4.0,93,0.00,,BKN055,0.02,VWS V14.00,2013-10-05 18:00:00,
2013-10-05 14:01:00,71.9,71.0,29.99,SW,215,0.0,0.0,97,0.10,,BKN055,0.12,VWS V14.00,2013-10-05 18:01:00,
2013-10-05 14:10:00,74.1,71.9,29.99,SSW,194,0.0,0.0,93,0.00,,BKN055,0.02,VWS V14.00,2013-10-05 18:10:00,
2013-10-05 14:11:00,71.6,70.7,29.98,SW,216,0.0,0.0,97,0.13,,BKN055,0.15,VWS V14.00,2013-10-05 18:11:00,
2013-10-05 14:20:00,73.7,71.6,30.00,SSW,210,0.0,4.0,93,0.00,,BKN055,0.02,VWS V14.00,2013-10-05 18:20:00,
2013-10-05 14:21:00,71.4,70.5,29.97,SW,215,0.0,0.0,97,0.15,,BKN055,0.17,VWS V14.00,2013-10-05 18:21:00,
2013-10-05 14:30:00,73.2,71.4,30.00,WSW,240,0.0,3.0,94,0.03,,BKN055,0.05,VWS V14.00,2013-10-05 18:30:00,
2013-10-05 14:31:00,71.4,70.8,29.98,SW,232,0.0,1.0,98,0.16,,BKN055,0.18,VWS V14.00,2013-10-05 18:31:00,
2013-10-05 14:40:00,72.6,71.1,30.00,SSW,211,0.0,2.0,95,0.05,,BKN055,0.07,VWS V14.00,2013-10-05 18:40:00,
2013-10-05 14:41:00,71.2,70.6,29.98,WSW,241,0.0,3.0,98,0.14,,BKN055,0.19,VWS V14.00,2013-10-05 18:41:00,
2013-10-05 14:50:00,72.2,71.0,29.99,SSW,213,0.0,2.0,96,0.07,,BKN055,0.09,VWS V14.00,2013-10-05 18:50:00,
2013-10-05 14:51:00,71.0,70.4,29.97,SW,219,0.0,3.0,98,0.14,,BKN055,0.21,VWS V14.00,2013-10-05 18:51:00,
2013-10-05 15:00:00,71.9,71.0,29.99,SW,215,0.0,0.0,97,0.10,,BKN055,0.12,VWS V14.00,2013-10-05 19:00:00,
2013-10-05 15:01:00,70.9,70.3,29.97,West,277,0.0,3.0,98,0.14,,BKN055,0.23,VWS V14.00,2013-10-05 19:01:00,
2013-10-05 15:10:00,71.6,70.7,29.98,SW,216,0.0,0.0,97,0.13,,BKN055,0.15,VWS V14.00,2013-10-05 19:10:00,
2013-10-05 15:11:00,70.8,70.2,29.96,West,277,0.0,1.0,98,0.14,,BKN055,0.26,VWS V14.00,2013-10-05 19:11:00,
2013-10-05 15:20:00,71.4,70.5,29.97,SW,215,0.0,0.0,97,0.15,,BKN055,0.17,VWS V14.00,2013-10-05 19:20:00,
2013-10-05 15:21:00,70.8,70.5,29.95,West,277,0.0,0.0,99,0.15,,BKN055,0.30,VWS V14.00,2013-10-05 19:21:00,
2013-10-05 15:30:00,71.4,70.8,29.98,SW,232,0.0,1.0,98,0.16,,BKN055,0.18,VWS V14.00,2013-10-05 19:30:00,
2013-10-05 15:31:00,70.8,70.5,29.95,West,276,0.0,0.0,99,0.15,,BKN055,0.32,VWS V14.00,2013-10-05 19:31:00,
2013-10-05 15:40:00,71.2,70.6,29.98,WSW,241,0.0,3.0,98,0.14,,BKN055,0.19,VWS V14.00,2013-10-05 19:40:00,
2013-10-05 15:41:00,70.9,70.6,29.95,West,277,0.0,0.0,99,0.16,,BKN055,0.34,VWS V14.00,2013-10-05 19:41:00,
2013-10-05 15:50:00,71.0,70.4,29.97,SW,219,0.0,3.0,98,0.14,,BKN055,0.21,VWS V14.00,2013-10-05 19:50:00,
2013-10-05 15:51:00,71.0,70.7,29.95,West,279,0.0,1.0,99,0.17,,BKN055,0.36,VWS V14.00,2013-10-05 19:51:00,
2013-10-05 16:00:00,70.9,70.3,29.97,West,277,0.0,3.0,98,0.14,,BKN055,0.23,VWS V14.00,2013-10-05 20:00:00,
2013-10-05 16:01:00,70.9,70.6,29.94,East,81,0.0,6.0,99,0.16,,BKN055,0.37,VWS V14.00,2013-10-05 20:01:00,
2013-10-05 16:10:00,70.8,70.2,29.96,West,277,0.0,1.0,98,0.14,,BKN055,0.26,VWS V14.00,2013-10-05 20:10:00,
2013-10-05 16:11:00,70.5,70.2,29.93,West,281,2.0,6.0,99,0.16,,BKN055,0.39,VWS V14.00,2013-10-05 20:11:00,
2013-10-05 16:20:00,70.8,70.5,29.95,West,277,0.0,0.0,99,0.15,,BKN055,0.30,VWS V14.00,2013-10-05 20:20:00,
2013-10-05 16:21:00,70.3,70.0,29.92,SW,232,0.0,9.0,99,0.16,,BKN055,0.42,VWS V14.00,2013-10-05 20:21:00,
2013-10-05 16:30:00,70.8,70.5,29.95,West,276,0.0,0.0,99,0.15,,BKN055,0.32,VWS V14.00,2013-10-05 20:30:00,
2013-10-05 16:31:00,70.2,69.9,29.92,SSW,200,0.0,6.0,99,0.15,,BKN055,0.45,VWS V14.00,2013-10-05 20:31:00,
2013-10-05 16:40:00,70.9,70.6,29.95,West,277,0.0,0.0,99,0.16,,BKN055,0.34,VWS V14.00,2013-10-05 20:40:00,
2013-10-05 16:41:00,70.0,69.4,29.92,SSW,209,6.0,6.0,98,0.13,,BKN055,0.45,VWS V14.00,2013-10-05 20:41:00,
2013-10-05 16:50:00,71.0,70.7,29.95,West,279,0.0,1.0,99,0.17,,BKN055,0.36,VWS V14.00,2013-10-05 20:50:00,
2013-10-05 16:51:00,70.0,69.7,29.93,WSW,238,0.0,10.0,99,0.12,,BKN055,0.46,VWS V14.00,2013-10-05 20:51:00,
2013-10-05 17:00:00,70.9,70.6,29.94,East,81,0.0,6.0,99,0.16,,BKN055,0.37,VWS V14.00,2013-10-05 21:00:00,
2013-10-05 17:01:00,70.2,69.6,29.93,South,182,0.0,6.0,98,0.10,,BKN055,0.46,VWS V14.00,2013-10-05 21:01:00,
2013-10-05 17:10:00,70.5,70.2,29.93,West,281,2.0,6.0,99,0.16,,BKN055,0.39,VWS V14.00,2013-10-05 21:10:00,
2013-10-05 17:11:00,70.6,70.3,29.93,SW,227,0.0,3.0,99,0.09,,BKN055,0.46,VWS V14.00,2013-10-05 21:11:00,
2013-10-05 17:20:00,70.3,70.0,29.92,SW,232,0.0,9.0,99,0.16,,BKN055,0.42,VWS V14.00,2013-10-05 21:20:00,
2013-10-05 17:21:00,70.5,69.9,29.93,WSW,245,0.0,3.0,98,0.07,,BKN055,0.46,VWS V14.00,2013-10-05 21:21:00,
2013-10-05 17:30:00,70.2,69.9,29.92,SSW,200,0.0,6.0,99,0.15,,BKN055,0.45,VWS V14.00,2013-10-05 21:30:00,
2013-10-05 17:31:00,70.7,70.4,29.93,SE,133,0.0,1.0,99,0.04,,BKN055,0.46,VWS V14.00,2013-10-05 21:31:00,
2013-10-05 17:40:00,70.0,69.4,29.92,SSW,209,6.0,6.0,98,0.13,,BKN055,0.45,VWS V14.00,2013-10-05 21:40:00,
2013-10-05 17:41:00,70.6,70.0,29.92,SSW,209,0.0,0.0,98,0.01,,BKN055,0.46,VWS V14.00,2013-10-05 21:41:00,
2013-10-05 17:50:00,70.0,69.7,29.93,WSW,238,0.0,10.0,99,0.12,,BKN055,0.46,VWS V14.00,2013-10-05 21:50:00,
2013-10-05 17:51:00,70.4,69.8,29.93,SSW,209,0.0,0.0,98,0.01,,BKN055,0.46,VWS V14.00,2013-10-05 21:51:00,
2013-10-05 18:00:00,70.2,69.6,29.93,South,182,0.0,6.0,98,0.10,,BKN055,0.46,VWS V14.00,2013-10-05 22:00:00,
2013-10-05 18:01:00,70.4,69.8,29.93,SSW,209,0.0,0.0,98,0.00,,BKN055,0.46,VWS V14.00,2013-10-05 22:01:00,
2013-10-05 18:10:00,70.6,70.3,29.93,SW,227,0.0,3.0,99,0.09,,BKN055,0.46,VWS V14.00,2013-10-05 22:10:00,
2013-10-05 18:11:00,70.4,69.8,29.93,SSW,209,0.0,0.0,98,0.00,,BKN055,0.46,VWS V14.00,2013-10-05 22:11:00,
2013-10-05 18:20:00,70.5,69.9,29.93,WSW,245,0.0,3.0,98,0.07,,BKN055,0.46,VWS V14.00,2013-10-05 22:20:00,
2013-10-05 18:21:00,70.3,69.7,29.93,SSW,209,0.0,0.0,98,0.00,,BKN055,0.46,VWS V14.00,2013-10-05 22:21:00,
2013-10-05 18:30:00,70.7,70.4,29.93,SE,133,0.0,1.0,99,0.04,,BKN055,0.46,VWS V14.00,2013-10-05 22:30:00,
2013-10-05 18:31:00,70.3,69.7,29.93,SSW,209,0.0,0.0,98,0.00,,BKN055,0.46,VWS V14.00,2013-10-05 22:31:00,
2013-10-05 18:40:00,70.6,70.0,29.92,SSW,209,0.0,0.0,98,0.01,,BKN055,0.46,VWS V14.00,2013-10-05 22:40:00,
2013-10-05 18:41:00,70.0,69.4,29.93,SSW,209,0.0,0.0,98,0.00,,BKN055,0.46,VWS V14.00,2013-10-05 22:41:00,
2013-10-05 18:50:00,70.4,69.8,29.93,SSW,209,0.0,0.0,98,0.01,,BKN055,0.46,VWS V14.00,2013-10-05 22:50:00,
2013-10-05 18:51:00,69.9,69.3,29.93,SSW,209,0.0,0.0,98,0.00,,BKN055,0.46,VWS V14.00,2013-10-05 22:51:00,
2013-10-05 19:00:00,70.4,69.8,29.93,SSW,209,0.0,0.0,98,0.00,,BKN055,0.46,VWS V14.00,2013-10-05 23:00:00,
2013-10-05 19:01:00,69.8,69.2,29.93,North,360,0.0,0.0,98,0.00,,BKN055,0.46,VWS V14.00,2013-10-05 23:01:00,
2013-10-05 19:10:00,70.4,69.8,29.93,SSW,209,0.0,0.0,98,0.00,,BKN055,0.46,VWS V14.00,2013-10-05 23:10:00,
2013-10-05 19:11:00,69.7,69.1,29.93,North,5,0.0,0.0,98,0.00,,BKN055,0.46,VWS V14.00,2013-10-05 23:11:00,
2013-10-05 19:20:00,70.3,69.7,29.93,SSW,209,0.0,0.0,98,0.00,,BKN055,0.46,VWS V14.00,2013-10-05 23:20:00,
2013-10-05 19:21:00,69.6,69.0,29.95,North,5,0.0,1.0,98,0.01,,BKN055,0.47,VWS V14.00,2013-10-05 23:21:00,
2013-10-05 19:30:00,70.3,69.7,29.93,SSW,209,0.0,0.0,98,0.00,,BKN055,0.46,VWS V14.00,2013-10-05 23:30:00,
2013-10-05 19:31:00,69.5,69.2,29.94,NE,48,0.0,2.0,99,0.14,,BKN055,0.60,VWS V14.00,2013-10-05 23:31:00,
2013-10-05 19:40:00,70.0,69.4,29.93,SSW,209,0.0,0.0,98,0.00,,BKN055,0.46,VWS V14.00,2013-10-05 23:40:00,
2013-10-05 19:41:00,69.4,69.1,29.94,NE,48,0.0,0.0,99,0.24,,BKN055,0.70,VWS V14.00,2013-10-05 23:41:00,
2013-10-05 19:50:00,69.9,69.3,29.93,SSW,209,0.0,0.0,98,0.00,,BKN055,0.46,VWS V14.00,2013-10-05 23:50:00,
2013-10-05 19:51:00,69.5,69.2,29.94,NE,48,0.0,0.0,99,0.26,,BKN055,0.72,VWS V14.00,2013-10-05 23:51:00,
2013-10-05 20:00:00,69.8,69.2,29.93,North,360,0.0,0.0,98,0.00,,BKN055,0.46,VWS V14.00,2013-10-06 00:00:00,
2013-10-05 20:01:00,69.4,69.1,29.93,NE,48,0.0,1.0,99,0.26,,BKN055,0.72,VWS V14.00,2013-10-06 00:01:00,
2013-10-05 20:10:00,69.7,69.1,29.93,North,5,0.0,0.0,98,0.00,,BKN055,0.46,VWS V14.00,2013-10-06 00:10:00,
2013-10-05 20:11:00,69.3,69.0,29.93,NE,48,0.0,0.0,99,0.26,,BKN055,0.72,VWS V14.00,2013-10-06 00:11:00,
2013-10-05 20:20:00,69.6,69.0,29.95,North,5,0.0,1.0,98,0.01,,BKN055,0.47,VWS V14.00,2013-10-06 00:20:00,
2013-10-05 20:21:00,69.2,68.9,29.94,NE,48,0.0,1.0,99,0.26,,BKN055,0.72,VWS V14.00,2013-10-06 00:21:00,
2013-10-05 20:30:00,69.5,69.2,29.94,NE,48,0.0,2.0,99,0.14,,BKN055,0.60,VWS V14.00,2013-10-06 00:30:00,
2013-10-05 20:31:00,69.2,68.9,29.94,NE,48,0.0,1.0,99,0.37,,BKN055,0.84,VWS V14.00,2013-10-06 00:31:00,
2013-10-05 20:40:00,69.4,69.1,29.94,NE,48,0.0,0.0,99,0.24,,BKN055,0.70,VWS V14.00,2013-10-06 00:40:00,
2013-10-05 20:41:00,69.2,68.9,29.94,NE,48,0.0,1.0,99,0.25,,BKN055,0.85,VWS V14.00,2013-10-06 00:41:00,
2013-10-05 20:50:00,69.5,69.2,29.94,NE,48,0.0,0.0,99,0.26,,BKN055,0.72,VWS V14.00,2013-10-06 00:50:00,
2013-10-05 20:51:00,69.2,68.9,29.94,NNW,347,0.0,3.0,99,0.15,,BKN055,0.85,VWS V14.00,2013-10-06 00:51:00,
2013-10-05 21:00:00,69.4,69.1,29.93,NE,48,0.0,1.0,99,0.26,,BKN055,0.72,VWS V14.00,2013-10-06 01:00:00,
2013-10-05 21:01:00,69.1,69.1,29.94,NNW,347,0.0,0.0,100,0.17,,BKN055,0.89,VWS V14.00,2013-10-06 01:01:00,
2013-10-05 21:10:00,69.3,69.0,29.93,NE,48,0.0,0.0,99,0.26,,BKN055,0.72,VWS V14.00,2013-10-06 01:10:00,
2013-10-05 21:11:00,69.1,69.1,29.94,NNW,347,0.0,0.0,100,0.18,,BKN055,0.90,VWS V14.00,2013-10-06 01:11:00,
2013-10-05 21:20:00,69.2,68.9,29.94,NE,48,0.0,1.0,99,0.26,,BKN055,0.72,VWS V14.00,2013-10-06 01:20:00,
2013-10-05 21:21:00,69.1,69.1,29.94,NNW,347,0.0,1.0,100,0.18,,BKN055,0.90,VWS V14.00,2013-10-06 01:21:00,
2013-10-05 21:30:00,69.2,68.9,29.94,NE,48,0.0,1.0,99,0.37,,BKN055,0.84,VWS V14.00,2013-10-06 01:30:00,
2013-10-05 21:31:00,69.1,69.1,29.94,NNW,346,0.0,1.0,100,0.18,,BKN055,0.90,VWS V14.00,2013-10-06 01:31:00,
2013-10-05 21:40:00,69.2,68.9,29.94,NE,48,0.0,1.0,99,0.25,,BKN055,0.85,VWS V14.00,2013-10-06 01:40:00,
2013-10-05 21:41:00,69.1,69.1,29.93,NNW,344,3.0,4.0,100,0.08,,BKN055,0.92,VWS V14.00,2013-10-06 01:41:00,
2013-10-05 21:50:00,69.2,68.9,29.94,NNW,347,0.0,3.0,99,0.15,,BKN055,0.85,VWS V14.00,2013-10-06 01:50:00,
2013-10-05 21:51:00,69.0,69.0,29.93,NNW,344,1.0,3.0,100,0.07,,BKN055,0.92,VWS V14.00,2013-10-06 01:51:00,
2013-10-05 22:00:00,69.1,69.1,29.94,NNW,347,0.0,0.0,100,0.17,,BKN055,0.89,VWS V14.00,2013-10-06 02:00:00,
2013-10-05 22:01:00,69.0,69.0,29.92,NNW,344,0.0,2.0,100,0.07,,BKN055,0.92,VWS V14.00,2013-10-06 02:01:00,
2013-10-05 22:10:00,69.1,69.1,29.94,NNW,347,0.0,0.0,100,0.18,,BKN055,0.90,VWS V14.00,2013-10-06 02:10:00,
2013-10-05 22:11:00,69.0,69.0,29.93,NNW,344,0.0,0.0,100,0.09,,BKN055,0.98,VWS V14.00,2013-10-06 02:11:00,
2013-10-05 22:20:00,69.1,69.1,29.94,NNW,347,0.0,1.0,100,0.18,,BKN055,0.90,VWS V14.00,2013-10-06 02:20:00,
2013-10-05 22:21:00,69.0,69.0,29.93,NNW,344,0.0,0.0,100,0.10,,BKN055,1.00,VWS V14.00,2013-10-06 02:21:00,
2013-10-05 22:30:00,69.1,69.1,29.94,NNW,346,0.0,1.0,100,0.18,,BKN055,0.90,VWS V14.00,2013-10-06 02:30:00,
2013-10-05 22:31:00,69.2,69.2,29.92,NNW,343,0.0,2.0,100,0.27,,BKN055,1.17,VWS V14.00,2013-10-06 02:31:00,
2013-10-05 22:40:00,69.1,69.1,29.93,NNW,344,3.0,4.0,100,0.08,,BKN055,0.92,VWS V14.00,2013-10-06 02:40:00,
2013-10-05 22:41:00,69.2,69.2,29.92,NW,321,0.0,4.0,100,0.34,,BKN055,1.24,VWS V14.00,2013-10-06 02:41:00,
2013-10-05 22:50:00,69.0,69.0,29.93,NNW,344,1.0,3.0,100,0.07,,BKN055,0.92,VWS V14.00,2013-10-06 02:50:00,
2013-10-05 22:51:00,69.2,69.2,29.92,NW,324,0.0,1.0,100,0.41,,BKN055,1.33,VWS V14.00,2013-10-06 02:51:00,
2013-10-05 23:00:00,69.0,69.0,29.92,NNW,344,0.0,2.0,100,0.07,,BKN055,0.92,VWS V14.00,2013-10-06 03:00:00,
2013-10-05 23:01:00,69.1,69.1,29.93,NNW,329,0.0,2.0,100,0.47,,BKN055,1.39,VWS V14.00,2013-10-06 03:01:00,
2013-10-05 23:10:00,69.0,69.0,29.93,NNW,344,0.0,0.0,100,0.09,,BKN055,0.98,VWS V14.00,2013-10-06 03:10:00,
2013-10-05 23:11:00,69.2,69.2,29.93,NNW,327,0.0,1.0,100,0.53,,BKN055,1.45,VWS V14.00,2013-10-06 03:11:00,
2013-10-05 23:20:00,69.0,69.0,29.93,NNW,344,0.0,0.0,100,0.10,,BKN055,1.00,VWS V14.00,2013-10-06 03:20:00,
2013-10-05 23:21:00,69.2,69.2,29.94,WNW,303,0.0,0.0,100,0.62,,BKN055,1.60,VWS V14.00,2013-10-06 03:21:00,
2013-10-05 23:30:00,69.2,69.2,29.92,NNW,343,0.0,2.0,100,0.27,,BKN055,1.17,VWS V14.00,2013-10-06 03:30:00,
2013-10-05 23:31:00,69.3,69.3,29.93,NW,318,0.0,2.0,100,0.69,,BKN055,1.69,VWS V14.00,2013-10-06 03:31:00,
2013-10-05 23:40:00,69.2,69.2,29.92,NW,321,0.0,4.0,100,0.34,,BKN055,1.24,VWS V14.00,2013-10-06 03:40:00,
2013-10-05 23:41:00,69.1,69.1,29.92,NW,321,0.0,0.0,100,0.53,,BKN055,1.70,VWS V14.00,2013-10-06 03:41:00,
2013-10-05 23:50:00,69.2,69.2,29.92,NW,324,0.0,1.0,100,0.41,,BKN055,1.33,VWS V14.00,2013-10-06 03:50:00,
2013-10-05 23:51:00,69.0,69.0,29.91,NNW,336,0.0,0.0,100,0.49,,BKN055,1.73,VWS V14.00,2013-10-06 03:51:00,